Creek Data

    Home     View Charts     View Raw Data     Messages

ID Distance Battery Voltage Battery Current Internal Temp Internal Humidity External Temp Solar Input rssi snr Time Stamp Record
65254 15.0 3.85 -5 57 57 57 0.8 -76 8 02/03/2026 05:45 PM 48033
65253 15.0 3.78 -10 60 57 57 4.1 -76 8 02/03/2026 05:30 PM 48032
65252 15.0 3.87 0 64 56 62 4.5 -75 8 02/03/2026 05:15 PM 48031
65251 15.0 3.89 0 68 54 63 4.5 -75 7 02/03/2026 05:00 PM 48030
65250 15.1 3.94 36 71 52 65 4.5 -75 8 02/03/2026 04:45 PM 48029
65249 15.0 3.84 0 72 51 66 5.1 -75 7 02/03/2026 04:30 PM 48028
65248 15.0 3.84 0 73 51 66 5.1 -75 8 02/03/2026 04:15 PM 48027
65247 15.0 3.83 0 75 50 66 5.1 -74 8 02/03/2026 04:00 PM 48026
65246 15.0 3.83 8 78 47 66 5.1 -74 8 02/03/2026 03:45 PM 48025
65245 15.0 3.83 0 75 48 66 5.1 -75 8 02/03/2026 03:30 PM 48024
65244 15.1 3.83 0 72 50 65 5.1 -75 8 02/03/2026 03:15 PM 48023
65243 15.1 3.83 8 72 50 65 5.1 -75 7 02/03/2026 03:00 PM 48022
65242 15.1 3.83 0 76 47 65 5.1 -73 8 02/03/2026 02:45 PM 48021
65241 15.1 3.86 8 76 47 64 5.1 -74 7 02/03/2026 02:30 PM 48020
65240 15.1 3.83 6 77 46 64 5.1 -74 8 02/03/2026 02:15 PM 48019
65239 15.1 3.83 8 76 45 64 5.1 -75 7 02/03/2026 02:00 PM 48018
65238 15.1 3.83 9 76 44 64 5.1 -75 8 02/03/2026 01:45 PM 48017
65237 15.1 3.83 9 75 44 64 5.1 -75 8 02/03/2026 01:30 PM 48016
65236 15.1 3.83 0 74 44 63 5.1 -74 8 02/03/2026 01:15 PM 48015
65235 15.1 3.94 9 73 44 62 5.1 -75 8 02/03/2026 01:00 PM 48014
65234 15.1 3.83 0 72 44 62 5.1 -74 7 02/03/2026 12:45 PM 48013
65233 15.1 3.83 9 71 44 61 5.1 -78 5 02/03/2026 12:30 PM 48012
65232 15.2 3.83 0 70 44 61 5.1 -74 8 02/03/2026 12:15 PM 48011
65231 15.2 3.83 9 68 44 60 5.1 -75 7 02/03/2026 11:45 AM 48009
65230 15.2 3.83 9 66 43 59 5.1 -75 8 02/03/2026 11:30 AM 48008